Time;durP1;ratioP1;P1;durP2;ratioP2;P2;SDS_P1;SDS_P2;PMS_P1;PMS_P2;Temp;Humidity;BMP_temperature;BMP_pressure;BME280_temperature;BME280_humidity;BME280_pressure;Samples;Min_cycle;Max_cycle;Signal;HPM_P1;HPM_P2
2024/03/23 00:02:16;;;;;;;21.58;9.40;;;;;;;9.03;74.89;99763.84;6254196;28;20056;-76
2024/03/23 00:05:18;;;;;;;22.92;9.57;;;;;;;8.98;74.79;99758.91;6251655;28;20041;-76
2024/03/23 00:08:20;;;;;;;18.40;9.88;;;;;;;8.92;75.43;99761.03;6247544;28;20141;-76
2024/03/23 00:11:22;;;;;;;18.90;10.27;;;;;;;8.91;75.76;99754.16;6251943;28;20057;-76
2024/03/23 00:14:24;;;;;;;15.32;8.68;;;;;;;8.86;76.28;99755.25;6252821;28;20486;-76
2024/03/23 00:17:26;;;;;;;18.30;9.75;;;;;;;8.84;76.67;99746.69;6255338;28;21097;-76
2024/03/23 00:20:30;;;;;;;18.10;9.48;;;;;;;8.78;75.98;99746.22;6248832;28;20052;-76
2024/03/23 00:23:32;;;;;;;19.35;10.00;;;;;;;8.81;76.77;99746.91;6252424;28;20049;-76
2024/03/23 00:26:34;;;;;;;17.42;9.52;;;;;;;8.61;77.08;99742.84;6257507;28;20045;-76
2024/03/23 00:29:36;;;;;;;17.42;9.43;;;;;;;8.75;76.55;99738.59;6264530;28;20072;-76
2024/03/23 00:32:38;;;;;;;17.67;9.85;;;;;;;8.63;77.60;99740.16;6266198;28;20060;-76
2024/03/23 00:35:40;;;;;;;18.55;9.25;;;;;;;8.55;77.65;99732.78;6263189;28;20053;-76
2024/03/23 00:38:42;;;;;;;18.90;10.02;;;;;;;8.54;77.74;99732.88;6255298;28;20053;-76
2024/03/23 00:41:47;;;;;;;19.83;9.85;;;;;;;8.36;78.43;99727.78;6266718;28;20042;-76
2024/03/23 00:44:48;;;;;;;20.77;9.43;;;;;;;8.45;78.57;99729.06;6249414;28;20583;-76
2024/03/23 00:47:50;;;;;;;20.77;9.80;;;;;;;8.43;78.52;99733.50;6251307;28;20098;-76
2024/03/23 00:50:52;;;;;;;19.65;8.95;;;;;;;8.26;79.49;99732.66;6251485;28;20366;-75
2024/03/23 00:53:53;;;;;;;21.33;10.50;;;;;;;8.15;80.56;99724.63;6232958;28;20049;-76
2024/03/23 00:56:54;;;;;;;15.10;9.63;;;;;;;8.12;80.27;99722.19;6249232;28;20060;-76
2024/03/23 00:59:55;;;;;;;17.77;9.32;;;;;;;8.13;80.06;99716.06;6248808;28;20495;-76
2024/03/23 01:02:56;;;;;;;20.73;10.40;;;;;;;8.08;80.53;99713.72;6253080;28;20060;-77
2024/03/23 01:06:01;;;;;;;20.33;9.63;;;;;;;8.07;80.97;99716.41;6251457;28;20519;-76
2024/03/23 01:09:02;;;;;;;18.98;10.38;;;;;;;7.98;81.33;99707.38;6259391;28;20068;-76
2024/03/23 01:12:03;;;;;;;24.02;10.52;;;;;;;8.02;81.53;99706.28;6246808;28;20057;-76
2024/03/23 01:15:04;;;;;;;19.02;9.07;;;;;;;8.03;81.27;99704.50;6235782;28;20461;-76
2024/03/23 01:18:05;;;;;;;20.95;10.20;;;;;;;8.07;81.13;99701.69;6252535;28;20042;-76
2024/03/23 01:21:08;;;;;;;20.73;10.02;;;;;;;8.11;80.71;99701.50;6234310;28;20578;-76
2024/03/23 01:24:10;;;;;;;20.75;10.90;;;;;;;8.08;80.81;99703.34;6240708;28;20417;-76
2024/03/23 01:27:11;;;;;;;17.20;9.38;;;;;;;8.06;80.72;99707.78;6242461;28;20088;-75
2024/03/23 01:30:13;;;;;;;19.02;10.10;;;;;;;7.95;81.59;99707.56;6241376;28;20049;-75
2024/03/23 01:33:14;;;;;;;;;;;;;;;7.85;81.72;99709.00;6241633;28;20053;-75
2024/03/23 01:36:15;;;;;;;16.60;8.00;;;;;;;7.75;82.40;99700.88;6241010;28;19925;-75
2024/03/23 01:39:16;;;;;;;18.25;9.32;;;;;;;7.69;82.49;99697.78;6240437;28;20079;-75
2024/03/23 01:42:17;;;;;;;20.80;9.38;;;;;;;7.72;83.31;99695.00;6240353;28;20049;-75
2024/03/23 01:45:18;;;;;;;20.10;9.88;;;;;;;7.69;82.95;99696.00;6247452;28;20099;-75
2024/03/23 01:48:20;;;;;;;18.02;9.13;;;;;;;7.62;83.59;99695.50;6247191;28;20056;-76
2024/03/23 01:51:21;;;;;;;16.15;9.60;;;;;;;7.70;83.38;99695.09;6244777;28;20053;-75
2024/03/23 01:54:23;;;;;;;17.05;9.45;;;;;;;7.70;83.47;99696.84;6238803;28;20062;-75
2024/03/23 01:57:24;;;;;;;16.45;9.10;;;;;;;7.50;84.27;99705.72;6238649;28;20057;-75
2024/03/23 02:00:27;;;;;;;17.73;9.15;;;;;;;7.55;84.55;99693.31;6228453;28;20068;-75
2024/03/23 02:03:28;;;;;;;21.45;9.65;;;;;;;7.56;84.65;99689.81;6236811;28;20136;-75
2024/03/23 02:06:33;;;;;;;25.42;9.30;;;;;;;7.54;84.70;99692.50;6246061;28;20085;-75
2024/03/23 02:09:34;;;;;;;20.10;9.75;;;;;;;7.44;85.15;99683.53;6241579;28;20049;-75
2024/03/23 02:12:35;;;;;;;24.55;8.90;;;;;;;7.31;85.58;99675.56;6235515;28;20061;-75
2024/03/23 02:15:39;;;;;;;22.93;10.33;;;;;;;7.19;86.39;99677.03;6236445;28;20413;-76
2024/03/23 02:18:42;;;;;;;17.77;8.77;;;;;;;7.25;86.86;99679.31;6239231;28;20165;-76
2024/03/23 02:21:43;;;;;;;18.20;9.45;;;;;;;7.26;86.47;99674.97;6241680;28;20045;-75
2024/03/23 02:24:46;;;;;;;17.92;9.23;;;;;;;7.18;87.25;99671.94;6239854;28;20489;-75
2024/03/23 02:27:48;;;;;;;16.83;9.07;;;;;;;7.21;87.41;99672.63;6239969;28;20069;-75
2024/03/23 02:30:49;;;;;;;22.10;8.55;;;;;;;7.33;86.74;99665.94;6230905;28;20050;-75
2024/03/23 02:33:50;;;;;;;18.85;9.88;;;;;;;7.23;86.55;99670.78;6234490;28;20489;-75
2024/03/23 02:36:51;;;;;;;17.70;9.23;;;;;;;7.31;86.15;99660.00;6233041;28;20055;-75
2024/03/23 02:39:54;;;;;;;18.20;9.45;;;;;;;7.37;86.01;99657.06;6238341;28;20045;-75
2024/03/23 02:42:55;;;;;;;16.00;9.45;;;;;;;7.25;86.30;99660.31;6239321;28;20049;-75
2024/03/23 02:45:56;;;;;;;22.60;10.68;;;;;;;7.10;87.23;99661.13;6237525;28;20107;-76
2024/03/23 02:48:57;;;;;;;20.08;9.88;;;;;;;7.12;87.55;99657.53;6237660;28;20136;-76
2024/03/23 02:52:03;;;;;;;18.17;9.68;;;;;;;7.08;87.42;99656.00;6233160;28;20089;-75
2024/03/23 02:55:06;;;;;;;20.20;10.40;;;;;;;7.04;87.86;99644.13;6236585;28;20399;-75
2024/03/23 02:58:07;;;;;;;15.82;9.05;;;;;;;7.01;88.08;99659.84;6252262;28;20041;-75
2024/03/23 03:01:08;;;;;;;22.33;9.60;;;;;;;7.03;88.15;99652.81;6238628;28;20046;-67
2024/03/23 03:04:09;;;;;;;16.77;8.25;;;;;;;7.03;87.87;99647.63;6250796;28;20460;-68
2024/03/23 03:07:12;;;;;;;17.27;8.80;;;;;;;6.99;88.13;99652.16;6250751;28;20527;-68
2024/03/23 03:10:13;;;;;;;21.45;9.55;;;;;;;6.93;88.32;99651.63;6251978;28;20107;-68
2024/03/23 03:13:14;;;;;;;17.52;9.85;;;;;;;6.95;88.59;99655.81;6252099;28;20053;-67
2024/03/23 03:16:15;;;;;;;23.08;8.60;;;;;;;6.98;88.20;99649.63;6251732;28;20548;-67
2024/03/23 03:19:16;;;;;;;20.55;9.18;;;;;;;6.89;87.95;99653.53;6250588;28;20049;-68
2024/03/23 03:22:17;;;;;;;19.35;9.75;;;;;;;6.80;89.16;99643.66;6251709;28;20466;-67
2024/03/23 03:25:18;;;;;;;26.92;9.93;;;;;;;6.79;89.71;99648.00;6251659;28;20057;-67
2024/03/23 03:28:19;;;;;;;18.85;9.45;;;;;;;6.81;90.08;99643.56;6251527;28;20532;-68
2024/03/23 03:31:20;;;;;;;16.80;9.32;;;;;;;6.78;90.13;99637.72;6250202;28;20049;-68
2024/03/23 03:34:21;;;;;;;18.08;9.30;;;;;;;6.78;89.89;99641.13;6250317;28;20068;-67
2024/03/23 03:37:22;;;;;;;18.58;10.02;;;;;;;6.83;89.92;99646.09;6250173;28;20057;-67
2024/03/23 03:40:25;;;;;;;17.15;8.48;;;;;;;6.86;89.46;99633.81;6252555;28;20140;-67
2024/03/23 03:43:27;;;;;;;17.38;9.13;;;;;;;6.86;89.65;99626.03;6274784;28;20065;-67
2024/03/23 03:46:33;;;;;;;19.17;9.73;;;;;;;6.79;89.44;99632.44;6274826;28;20060;-67
2024/03/23 03:49:34;;;;;;;23.13;8.63;;;;;;;6.65;90.68;99633.16;6274533;28;20393;-68
2024/03/23 03:52:35;;;;;;;17.35;9.35;;;;;;;6.64;91.94;99628.06;6273845;28;20089;-67
2024/03/23 03:55:35;;;;;;;20.13;9.18;;;;;;;6.72;91.50;99630.25;6274431;28;20412;-67
2024/03/23 03:58:36;;;;;;;17.00;9.00;;;;;;;6.75;90.90;99632.69;6275955;28;20060;-67
2024/03/23 04:01:37;;;;;;;16.90;8.90;;;;;;;6.71;90.86;99623.38;6275669;28;20132;-67
2024/03/23 04:04:38;;;;;;;18.60;8.77;;;;;;;6.75;90.86;99638.69;6275595;28;20053;-68
2024/03/23 04:07:39;;;;;;;19.65;10.05;;;;;;;6.64;91.81;99625.47;6274366;28;20049;-67
2024/03/23 04:10:42;;;;;;;19.73;8.95;;;;;;;6.64;91.55;99635.84;6275371;28;20076;-67
2024/03/23 04:13:43;;;;;;;18.10;9.32;;;;;;;6.69;91.41;99631.22;6274812;28;20086;-67
2024/03/23 04:16:44;;;;;;;17.75;9.52;;;;;;;6.66;92.07;99641.78;6273863;28;20045;-67
2024/03/23 04:19:45;;;;;;;19.75;10.52;;;;;;;6.60;92.48;99634.31;6275359;28;20056;-68
2024/03/23 04:22:46;;;;;;;26.05;10.50;;;;;;;6.50;93.21;99633.94;6275105;28;20049;-67
2024/03/23 04:25:47;;;;;;;18.50;10.50;;;;;;;6.41;93.73;99632.66;6273447;28;20115;-67
2024/03/23 04:28:48;;;;;;;29.83;10.45;;;;;;;6.49;93.64;99634.03;6273116;28;20057;-67
2024/03/23 04:31:49;;;;;;;18.77;9.13;;;;;;;6.50;93.96;99633.94;6273205;28;20103;-67
2024/03/23 04:34:49;;;;;;;23.00;10.02;;;;;;;6.53;93.86;99633.78;6273632;28;20382;-67
2024/03/23 04:37:52;;;;;;;17.15;9.48;;;;;;;6.50;94.10;99631.34;6273387;28;20045;-67
2024/03/23 04:40:57;;;;;;;19.77;10.45;;;;;;;6.39;95.26;99634.47;6290144;28;20055;-67
2024/03/23 04:43:58;;;;;;;24.05;11.43;;;;;;;6.29;96.50;99637.63;6273223;28;20493;-68
2024/03/23 04:47:00;;;;;;;41.60;17.38;;;;;;;6.41;96.68;99635.25;6274595;28;20143;-68
2024/03/23 04:50:02;;;;;;;24.60;10.55;;;;;;;6.35;97.22;99626.94;6274411;28;20083;-68
2024/03/23 04:53:03;;;;;;;18.20;9.73;;;;;;;6.48;97.26;99632.34;6274414;28;20134;-67
2024/03/23 04:56:04;;;;;;;24.58;10.63;;;;;;;6.57;96.60;99629.28;6274232;28;20046;-67
2024/03/23 04:59:05;;;;;;;23.17;9.73;;;;;;;6.50;96.83;99633.09;6243174;28;20067;-67
2024/03/23 05:02:06;;;;;;;19.80;9.98;;;;;;;6.52;97.23;99626.09;6226011;28;20483;-67
2024/03/23 05:05:07;;;;;;;20.23;9.43;;;;;;;6.58;96.94;99630.97;6224763;28;20112;-68
2024/03/23 05:08:08;;;;;;;19.50;9.38;;;;;;;6.53;96.72;99626.03;6240087;28;20054;-67
2024/03/23 05:11:10;;;;;;;24.05;10.20;;;;;;;6.65;96.06;99616.75;6239891;28;20056;-67
2024/03/23 05:14:13;;;;;;;17.17;9.40;;;;;;;6.72;95.20;99612.94;6224561;28;20386;-67
2024/03/23 05:17:16;;;;;;;19.15;10.20;;;;;;;6.67;96.11;99617.50;6224537;28;20067;-67
2024/03/23 05:20:20;;;;;;;16.77;9.18;;;;;;;6.79;95.91;99613.44;6224535;28;20104;-68
2024/03/23 05:23:21;;;;;;;17.92;8.63;;;;;;;6.77;96.51;99617.88;6239439;28;20065;-67
2024/03/23 05:26:22;;;;;;;20.15;9.55;;;;;;;7.02;95.81;99614.81;6238706;28;20064;-67
2024/03/23 05:29:23;;;;;;;16.77;9.52;;;;;;;6.97;95.21;99614.25;6241939;28;20191;-67
2024/03/23 05:32:24;;;;;;;18.38;9.25;;;;;;;6.96;95.36;99615.16;6250847;28;20506;-67
2024/03/23 05:35:25;;;;;;;18.15;9.35;;;;;;;6.97;95.89;99606.47;6239002;28;20057;-67
2024/03/23 05:38:28;;;;;;;17.92;8.68;;;;;;;7.20;95.18;99611.25;6230903;28;20056;-68
2024/03/23 05:41:28;;;;;;;22.23;9.55;;;;;;;7.22;95.57;99600.78;6242454;28;20463;-67
2024/03/23 05:44:31;;;;;;;19.50;9.35;;;;;;;7.44;94.16;99601.28;6247177;28;20128;-67
2024/03/23 05:47:32;;;;;;;22.30;10.80;;;;;;;7.61;94.35;99597.75;6254087;28;20468;-67
2024/03/23 05:50:33;;;;;;;19.77;8.65;;;;;;;7.79;93.98;99598.47;6252288;28;20056;-67
2024/03/23 05:53:36;;;;;;;15.90;8.68;;;;;;;8.00;93.27;99599.00;6264863;28;20058;-67
2024/03/23 05:56:37;;;;;;;21.58;10.15;;;;;;;8.49;91.92;99597.09;6242595;28;20053;-67
2024/03/23 05:59:38;;;;;;;17.90;9.70;;;;;;;8.60;90.96;99597.28;6257858;28;20064;-67
2024/03/23 06:02:39;;;;;;;23.30;10.65;;;;;;;8.93;90.45;99589.19;6247914;28;20054;-67
2024/03/23 06:05:40;;;;;;;17.38;8.63;;;;;;;8.93;89.59;99601.38;6246069;28;20489;-67
2024/03/23 06:08:41;;;;;;;19.27;10.40;;;;;;;9.31;89.02;99580.78;6253919;28;20049;-67
2024/03/23 06:11:42;;;;;;;21.25;10.15;;;;;;;9.37;88.80;99592.56;6271534;28;20056;-67
2024/03/23 06:14:43;;;;;;;16.02;9.30;;;;;;;9.30;89.12;99594.72;6270816;28;20098;-68
2024/03/23 06:17:44;;;;;;;18.90;10.02;;;;;;;9.44;89.51;99596.47;6249439;28;20053;-68
2024/03/23 06:20:44;;;;;;;20.85;10.93;;;;;;;9.39;89.46;99598.50;6232461;28;20057;-67
2024/03/23 06:23:51;;;;;;;21.65;10.75;;;;;;;9.52;89.67;99601.19;6245054;28;20057;-67
2024/03/23 06:26:51;;;;;;;17.60;10.98;;;;;;;9.54;88.63;99594.09;6251951;28;20057;-67
2024/03/23 06:29:52;;;;;;;16.38;9.82;;;;;;;9.61;88.97;99598.81;6257336;28;20541;-76
2024/03/23 06:32:53;;;;;;;19.65;9.73;;;;;;;9.51;89.23;99602.94;6245427;28;20571;-75
2024/03/23 06:35:54;;;;;;;25.52;11.48;;;;;;;9.61;89.41;99604.00;6264655;28;20052;-67
2024/03/23 06:38:55;;;;;;;17.50;9.43;;;;;;;9.63;89.75;99599.53;6270746;28;20045;-68
2024/03/23 06:41:56;;;;;;;23.35;11.73;;;;;;;9.72;89.18;99605.94;6258740;28;20056;-68
2024/03/23 06:44:57;;;;;;;29.05;11.68;;;;;;;10.04;88.70;99598.63;6248280;28;20497;-67
2024/03/23 06:47:58;;;;;;;19.88;10.43;;;;;;;10.16;88.45;99606.56;6250012;28;20049;-68
2024/03/23 06:50:59;;;;;;;24.33;10.65;;;;;;;10.16;88.43;99604.78;6244920;28;20472;-67
2024/03/23 06:54:06;;;;;;;20.27;10.63;;;;;;;10.10;88.40;99600.00;6236457;28;20063;-67
2024/03/23 06:57:07;;;;;;;19.10;10.25;;;;;;;10.37;88.15;99589.50;6233252;28;20504;-68
2024/03/23 07:00:09;;;;;;;19.60;10.75;;;;;;;10.47;89.56;99584.53;6261846;28;20049;-68
2024/03/23 07:03:10;;;;;;;24.02;12.02;;;;;;;10.60;88.74;99584.50;6249252;28;20127;-67
2024/03/23 07:06:11;;;;;;;22.90;11.07;;;;;;;10.72;88.15;99591.50;6249633;28;20106;-67
2024/03/23 07:09:12;;;;;;;24.08;11.98;;;;;;;11.09;87.11;99583.72;6250171;28;20050;-68
2024/03/23 07:12:13;;;;;;;21.88;11.32;;;;;;;11.17;87.39;99584.00;6242099;28;20074;-68
2024/03/23 07:15:17;;;;;;;26.52;10.95;;;;;;;11.18;86.83;99577.84;6225442;28;20145;-68
2024/03/23 07:18:18;;;;;;;21.30;11.32;;;;;;;11.38;86.48;99579.00;6224609;28;20054;-67
2024/03/23 07:21:19;;;;;;;23.38;9.90;;;;;;;11.53;85.58;99576.25;6239012;28;20484;-67
2024/03/23 07:24:19;;;;;;;23.92;10.55;;;;;;;11.74;84.82;99579.91;6227203;28;20111;-68
2024/03/23 07:27:20;;;;;;;25.58;11.75;;;;;;;12.00;84.64;99579.78;6243545;28;20041;-68
2024/03/23 07:30:21;;;;;;;22.08;10.90;;;;;;;12.12;84.48;99576.25;6227051;28;20064;-67
2024/03/23 07:33:22;;;;;;;17.13;9.95;;;;;;;12.25;84.03;99573.56;6225445;28;20556;-68
2024/03/23 07:36:23;;;;;;;23.05;11.32;;;;;;;12.39;82.95;99569.91;6226220;28;20049;-67
2024/03/23 07:39:27;;;;;;;20.13;11.07;;;;;;;12.38;83.69;99563.84;6232076;28;20053;-68
2024/03/23 07:42:29;;;;;;;15.18;10.10;;;;;;;12.46;83.19;99558.84;6221670;28;20061;-67
2024/03/23 07:45:30;;;;;;;23.63;10.90;;;;;;;12.45;82.99;99558.97;6257387;28;20504;-67
2024/03/23 07:48:32;;;;;;;23.70;11.97;;;;;;;12.56;82.19;99563.38;6261482;28;20488;-67
2024/03/23 07:51:34;;;;;;;23.70;10.82;;;;;;;12.66;82.82;99561.69;6273327;28;20281;-67
2024/03/23 07:54:35;;;;;;;;;;;;;;;12.70;82.55;99558.75;6260662;28;20053;-67
2024/03/23 07:57:36;;;;;;;16.75;9.50;;;;;;;12.89;82.27;99550.28;6265934;28;19932;-67
2024/03/23 08:00:37;;;;;;;19.55;9.95;;;;;;;13.01;81.26;99545.03;6258111;28;20045;-67
2024/03/23 08:03:40;;;;;;;16.40;10.55;;;;;;;13.17;81.30;99544.66;6235901;28;20045;-67
2024/03/23 08:06:41;;;;;;;22.60;10.48;;;;;;;13.35;80.79;99537.97;6250101;28;20045;-67
2024/03/23 08:09:42;;;;;;;19.45;9.88;;;;;;;13.37;79.88;99535.22;6249379;28;20076;-68
2024/03/23 08:12:46;;;;;;;22.17;9.80;;;;;;;13.41;79.55;99540.09;6249140;28;20124;-68
2024/03/23 08:15:46;;;;;;;22.65;10.00;;;;;;;13.91;77.83;99529.84;6249465;28;20049;-68
2024/03/23 08:18:48;;;;;;;20.17;10.45;;;;;;;14.13;76.91;99522.00;6248147;28;20136;-68
2024/03/23 08:21:50;;;;;;;15.57;9.70;;;;;;;14.40;76.39;99524.06;6248036;28;20061;-68
2024/03/23 08:24:51;;;;;;;;;;;;;;;14.58;74.61;99516.41;6249648;28;20050;-67
2024/03/23 08:27:52;;;;;;;17.83;8.50;;;;;;;14.81;74.27;99504.75;6264628;28;19987;-68
2024/03/23 08:30:54;;;;;;;17.25;8.82;;;;;;;15.00;73.21;99503.97;6247904;28;20053;-68
2024/03/23 08:33:55;;;;;;;18.58;10.15;;;;;;;14.90;73.40;99496.06;6249161;28;20056;-68
2024/03/23 08:36:55;;;;;;;18.42;9.85;;;;;;;15.44;71.53;99493.94;6247581;28;20128;-68
2024/03/23 08:39:56;;;;;;;14.88;9.25;;;;;;;15.45;71.10;99489.50;6247896;28;20060;-69
2024/03/23 08:42:57;;;;;;;19.20;10.02;;;;;;;15.82;70.41;99492.25;6248673;28;20098;-68
2024/03/23 08:46:07;;;;;;;14.65;9.07;;;;;;;15.69;70.04;99489.91;6248693;28;20045;-68
2024/03/23 08:49:08;;;;;;;13.77;8.02;;;;;;;15.95;69.16;99473.53;6247608;28;20084;-68
2024/03/23 08:52:09;;;;;;;18.80;8.88;;;;;;;15.98;69.58;99473.28;6247252;28;20057;-68
2024/03/23 08:55:10;;;;;;;14.18;9.52;;;;;;;16.29;68.93;99473.03;6248679;28;20054;-68
2024/03/23 08:58:12;;;;;;;18.35;9.07;;;;;;;16.30;67.29;99464.16;6248177;28;20123;-68
2024/03/23 09:01:13;;;;;;;16.50;8.82;;;;;;;16.73;67.48;99454.78;6248185;28;20452;-68
2024/03/23 09:04:16;;;;;;;14.43;9.15;;;;;;;16.88;66.01;99455.13;6247144;28;20088;-68
2024/03/23 09:07:17;;;;;;;13.45;8.52;;;;;;;17.30;66.60;99451.94;6248360;28;20046;-76
2024/03/23 09:10:18;;;;;;;19.10;9.93;;;;;;;17.18;64.29;99446.06;6247496;28;20569;-76
2024/03/23 09:13:19;;;;;;;16.58;9.32;;;;;;;16.97;65.43;99445.53;6248375;28;20054;-76
2024/03/23 09:16:20;;;;;;;16.65;8.55;;;;;;;17.02;64.27;99438.00;6246829;28;20046;-68
2024/03/23 09:19:20;;;;;;;14.18;8.27;;;;;;;17.03;64.46;99434.41;6247983;28;20489;-68
2024/03/23 09:22:21;;;;;;;25.63;8.77;;;;;;;17.22;64.46;99438.69;6247932;28;20502;-68
2024/03/23 09:25:22;;;;;;;10.55;6.97;;;;;;;17.76;62.57;99441.25;6247794;28;20143;-67
2024/03/23 09:28:23;;;;;;;11.32;6.95;;;;;;;18.10;61.30;99430.75;6247699;28;20409;-68
2024/03/23 09:31:26;;;;;;;13.27;8.05;;;;;;;17.86;61.60;99419.06;6247513;28;20049;-68
2024/03/23 09:34:27;;;;;;;14.38;7.00;;;;;;;17.81;61.50;99413.41;6263019;28;20548;-68
2024/03/23 09:37:28;;;;;;;13.48;7.82;;;;;;;17.67;61.61;99413.97;6246160;28;20073;-67
2024/03/23 09:40:29;;;;;;;10.32;6.65;;;;;;;17.84;62.01;99414.94;6247687;28;20422;-68
2024/03/23 09:43:32;;;;;;;11.85;7.25;;;;;;;18.36;61.17;99409.56;6247318;28;20049;-76
2024/03/23 09:46:36;;;;;;;11.82;6.55;;;;;;;18.43;59.11;99410.59;6247347;28;20041;-76
2024/03/23 09:49:38;;;;;;;12.95;7.25;;;;;;;18.23;60.04;99404.75;6247486;28;20107;-76
2024/03/23 09:52:41;;;;;;;11.27;7.47;;;;;;;18.06;59.27;99395.94;6245881;28;20057;-76
2024/03/23 09:55:44;;;;;;;12.25;7.57;;;;;;;18.03;58.60;99398.03;6246167;28;20049;-76
2024/03/23 09:58:44;;;;;;;15.10;7.25;;;;;;;17.69;60.04;99389.09;6247219;28;20053;-76
2024/03/23 10:01:46;;;;;;;9.65;6.30;;;;;;;17.76;60.32;99385.84;6247165;28;20050;-76
2024/03/23 10:04:48;;;;;;;15.20;8.18;;;;;;;17.90;60.07;99386.09;6246027;28;20515;-76
2024/03/23 10:07:52;;;;;;;14.55;7.07;;;;;;;17.74;61.33;99383.34;6247044;28;20049;-76
2024/03/23 10:10:53;;;;;;;16.13;7.38;;;;;;;17.81;59.14;99381.75;6245090;28;20080;-76
2024/03/23 10:13:56;;;;;;;15.88;7.30;;;;;;;17.78;58.35;99381.22;6247075;28;20391;-76
2024/03/23 10:17:23;;;;;;;16.17;6.45;;;;;;;17.97;58.65;99367.81;6246711;28;20068;-76
2024/03/23 10:20:24;;;;;;;17.35;6.78;;;;;;;17.88;58.29;99374.88;6246824;28;20056;-76
2024/03/23 10:23:25;;;;;;;12.38;6.97;;;;;;;17.78;58.47;99368.03;6247053;28;20053;-76
2024/03/23 10:26:27;;;;;;;14.57;7.25;;;;;;;17.93;58.76;99361.22;6246769;28;20128;-76
2024/03/23 10:29:28;;;;;;;10.43;6.03;;;;;;;17.69;57.87;99357.44;6245383;28;20465;-76
2024/03/23 10:32:29;;;;;;;9.52;6.03;;;;;;;17.71;57.63;99349.38;6245363;28;20395;-76
2024/03/23 10:35:30;;;;;;;11.93;5.80;;;;;;;18.37;57.70;99339.94;6246817;28;20143;-76
2024/03/23 10:38:32;;;;;;;12.13;5.93;;;;;;;18.31;57.43;99344.03;6245555;28;20496;-76
2024/03/23 10:41:33;;;;;;;;;;;;;;;18.38;56.21;99336.28;6247129;28;20054;-76
2024/03/23 10:44:35;;;;;;;9.20;5.55;;;;;;;18.65;55.80;99334.38;6246293;28;20413;-76
2024/03/23 10:47:39;;;;;;;10.38;5.97;;;;;;;18.45;56.11;99326.75;6245400;28;20095;-76
2024/03/23 10:50:40;;;;;;;11.63;6.60;;;;;;;19.36;54.13;99332.91;6245172;28;20110;-76
2024/03/23 10:53:42;;;;;;;10.15;6.00;;;;;;;19.93;54.15;99331.94;6246211;28;20057;-68
2024/03/23 10:56:43;;;;;;;9.13;5.60;;;;;;;19.58;52.56;99319.97;6246154;28;20119;-68
2024/03/23 10:59:45;;;;;;;9.60;5.63;;;;;;;19.87;49.96;99309.66;6245995;28;20141;-68
2024/03/23 11:02:47;;;;;;;10.85;7.00;;;;;;;19.91;51.83;99308.31;6244760;28;20050;-68
2024/03/23 11:05:48;;;;;;;;;;;;;;;19.65;51.26;99313.00;6246316;28;20057;-68
2024/03/23 11:08:48;;;;;;;8.68;5.63;;;;;;;20.20;50.22;99308.66;6246031;28;20400;-68
2024/03/23 11:11:49;;;;;;;16.52;9.15;;;;;;;20.49;51.60;99305.34;6244742;28;20054;-68
2024/03/23 11:14:52;;;;;;;7.93;5.40;;;;;;;20.19;50.21;99299.88;6244927;28;20391;-68
2024/03/23 11:18:05;;;;;;;28.05;17.02;;;;;;;19.99;50.86;99294.19;6245761;28;20140;-68
2024/03/23 11:21:09;;;;;;;8.85;5.30;;;;;;;19.31;51.85;99299.03;6245771;28;20567;-68
2024/03/23 11:24:14;;;;;;;8.18;6.00;;;;;;;19.17;52.38;99285.66;6250397;28;20488;-68
2024/03/23 11:27:16;;;;;;;13.20;7.53;;;;;;;19.61;52.49;99272.00;6249541;28;20085;-68
2024/03/23 11:30:24;;;;;;;11.10;5.80;;;;;;;19.77;51.09;99265.84;6249306;28;20060;-68
2024/03/23 11:33:28;;;;;;;11.45;5.90;;;;;;;19.67;50.39;99266.03;6250496;28;20060;-68
2024/03/23 11:36:29;;;;;;;12.25;6.45;;;;;;;19.58;50.65;99252.00;6250373;28;20136;-77
2024/03/23 11:39:30;;;;;;;9.17;5.50;;;;;;;19.62;49.62;99255.97;6249248;28;20536;-76
2024/03/23 11:42:31;;;;;;;301.25;130.73;;;;;;;19.90;50.37;99244.94;6250252;28;20057;-77
2024/03/23 11:45:40;;;;;;;271.02;103.65;;;;;;;20.04;49.81;99230.16;6249556;28;20046;-76
2024/03/23 11:48:41;;;;;;;186.93;82.38;;;;;;;20.49;50.14;99231.16;6249151;28;20140;-76
2024/03/23 11:51:41;;;;;;;8.90;5.83;;;;;;;20.44;48.58;99218.44;6249256;28;20049;-77
2024/03/23 11:54:45;;;;;;;7.03;5.07;;;;;;;20.97;46.99;99215.03;6249106;28;20049;-77
2024/03/23 11:57:46;;;;;;;10.15;5.13;;;;;;;20.30;47.43;99205.94;6265359;28;20077;-77
2024/03/23 12:00:59;;;;;;;7.87;4.70;;;;;;;19.82;47.56;99208.75;6249047;28;20045;-76
2024/03/23 12:04:00;;;;;;;6.18;4.47;;;;;;;19.59;47.89;99194.63;6249892;28;20049;-76
2024/03/23 12:07:10;;;;;;;8.40;5.33;;;;;;;19.65;47.78;99196.56;6250057;28;20088;-76
2024/03/23 12:10:11;;;;;;;7.45;4.32;;;;;;;19.67;46.89;99200.69;6249784;28;20481;-76
2024/03/23 12:13:17;;;;;;;6.05;3.97;;;;;;;19.64;48.60;99186.97;6248830;28;20064;-76
2024/03/23 12:16:20;;;;;;;12.13;4.88;;;;;;;19.36;49.43;99186.63;6249446;28;20049;-76
2024/03/23 12:19:22;;;;;;;11.30;5.20;;;;;;;19.12;49.00;99178.56;6249833;28;20057;-76
2024/03/23 12:22:26;;;;;;;;;;;;;;;19.36;48.91;99179.50;6248968;28;20064;-76
2024/03/23 12:25:27;;;;;;;11.05;4.75;;;;;;;19.17;48.94;99170.16;6249329;28;19921;-76
2024/03/23 12:28:28;;;;;;;8.55;5.03;;;;;;;19.31;49.14;99161.50;6248338;28;20512;-77
2024/03/23 12:31:29;;;;;;;7.28;4.40;;;;;;;19.17;48.79;99156.09;6247972;28;20123;-77
2024/03/23 12:34:30;;;;;;;9.20;3.53;;;;;;;19.40;48.46;99143.78;6248426;28;20493;-76
2024/03/23 12:37:31;;;;;;;9.20;4.00;;;;;;;19.01;47.71;99157.00;6249258;28;20081;-76
2024/03/23 12:40:31;;;;;;;5.63;3.90;;;;;;;18.93;48.43;99142.78;6247861;28;20053;-76
2024/03/23 12:43:32;;;;;;;7.70;4.30;;;;;;;19.07;47.87;99141.25;6247869;28;20481;-76
2024/03/23 12:46:33;;;;;;;5.50;3.80;;;;;;;19.11;48.42;99133.81;6248150;28;20046;-76
2024/03/23 12:49:34;;;;;;;7.47;3.63;;;;;;;19.45;46.71;99137.97;6247901;28;20050;-77
2024/03/23 12:52:35;;;;;;;9.98;3.55;;;;;;;19.39;47.17;99133.38;6248987;28;20062;-76
2024/03/23 12:55:36;;;;;;;7.75;3.92;;;;;;;19.57;47.23;99125.19;6247641;28;20171;-76
2024/03/23 12:58:37;;;;;;;10.57;4.13;;;;;;;19.52;46.81;99125.72;6248908;28;20128;-76
2024/03/23 13:01:38;;;;;;;6.22;3.72;;;;;;;19.44;47.21;99123.91;6247530;28;20057;-76
2024/03/23 13:04:39;;;;;;;8.80;4.28;;;;;;;19.07;47.15;99120.13;6247348;28;20449;-76
2024/03/23 13:07:40;;;;;;;5.85;3.53;;;;;;;19.11;47.12;99110.84;6247533;28;20048;-76
2024/03/23 13:10:44;;;;;;;8.10;3.83;;;;;;;19.11;46.84;99102.09;6248586;28;20064;-76
2024/03/23 13:13:45;;;;;;;5.70;3.75;;;;;;;19.08;47.71;99100.59;6247240;28;20421;-76
2024/03/23 13:16:46;;;;;;;11.68;4.13;;;;;;;18.90;47.51;99092.91;6247102;28;20045;-76
2024/03/23 13:19:50;;;;;;;8.43;3.67;;;;;;;19.05;47.51;99093.03;6248514;28;20053;-76
2024/03/23 13:22:52;;;;;;;6.65;3.60;;;;;;;18.95;46.16;99084.47;6247030;28;20046;-76
2024/03/23 13:25:54;;;;;;;6.90;3.75;;;;;;;19.14;46.38;99096.44;6247013;28;20049;-76
2024/03/23 13:28:55;;;;;;;6.38;4.00;;;;;;;19.19;46.29;99086.19;6246843;28;20478;-76
2024/03/23 13:31:56;;;;;;;7.95;3.58;;;;;;;19.02;46.17;99081.97;6247974;28;20089;-76
2024/03/23 13:34:57;;;;;;;5.45;3.58;;;;;;;18.91;46.39;99078.69;6247848;28;20139;-76
2024/03/23 13:37:58;;;;;;;8.40;3.38;;;;;;;18.64;45.77;99076.44;6246430;28;20057;-76
2024/03/23 13:41:00;;;;;;;9.20;5.05;;;;;;;18.78;46.22;99070.47;6247892;28;20085;-76
2024/03/23 13:44:13;;;;;;;5.05;3.28;;;;;;;18.63;46.15;99065.03;6246747;28;20517;-76
2024/03/23 13:47:28;;;;;;;6.38;3.45;;;;;;;18.42;47.01;99057.66;6246901;28;20172;-76
2024/03/23 13:50:29;;;;;;;5.80;3.63;;;;;;;18.39;46.56;99054.53;6247631;28;20045;-76
2024/03/23 13:53:34;;;;;;;6.57;3.53;;;;;;;18.36;46.07;99050.41;6246108;28;20060;-76
2024/03/23 13:56:35;;;;;;;5.95;2.83;;;;;;;18.23;46.18;99050.13;6246069;28;20052;-76
2024/03/23 13:59:36;;;;;;;4.30;3.22;;;;;;;18.24;46.29;99049.13;6247291;28;20056;-76
2024/03/23 14:02:37;;;;;;;15.57;7.32;;;;;;;18.12;46.25;99043.38;6245747;28;20536;-68
2024/03/23 14:05:39;;;;;;;4.43;2.95;;;;;;;18.12;46.39;99038.09;6247092;28;20057;-68
2024/03/23 14:08:41;;;;;;;3.58;2.40;;;;;;;18.15;45.63;99045.66;6246845;28;20042;-68
2024/03/23 14:11:43;;;;;;;4.82;2.42;;;;;;;18.03;45.75;99047.81;6246872;28;20457;-67